Waverly, Pennsylvania
Current Conditions -  °F | °C
As of 9:54 PM on Saturday 25 Oct 2014 (Local Time) from KAVP Reporting Station
Overcast Overcast  
Wind Chill: 62°   Ceiling: 5500
Heat Index: 62°   Visibility: 10mi
Dew Point: 47°   Wind: 12mph
Humidity: 58%   Direction: 240°WSW
Pressure: 29.6"   Gusts: NA
Location:  41.53°N, 75.71°W
Report Text: KAVP 260154Z 24010KT 10SM BKN055 BKN080 OVC100 17/08 A2960 RMK AO2 SLP021 T01670083
Loading
Personal Weather Stations






























Interactive Weather Map New forecast layout! Learn more

10-Day Weather Forecast

Advertisements
Track Severe Weather on mobile